Time;durP1;ratioP1;P1;durP2;ratioP2;P2;SDS_P1;SDS_P2;PMS_P1;PMS_P2;Temp;Humidity;BMP_temperature;BMP_pressure;BME280_temperature;BME280_humidity;BME280_pressure;Samples;Min_cycle;Max_cycle;Signal;HPM_P1;HPM_P2
2021/04/26 00:01:44;;;;;;;3.87;2.40;;;7.20;83.90;;;;;;5029813;28;20448;-68
2021/04/26 00:04:10;;;;;;;4.70;2.70;;;7.20;84.10;;;;;;5029454;28;20453;-68
2021/04/26 00:06:37;;;;;;;4.83;2.27;;;7.10;84.80;;;;;;5029685;28;20445;-68
2021/04/26 00:09:04;;;;;;;6.87;3.67;;;6.90;86.20;;;;;;5033248;28;20556;-68
2021/04/26 00:11:31;;;;;;;4.83;2.53;;;6.90;85.70;;;;;;5033355;28;20527;-68
2021/04/26 00:13:58;;;;;;;8.97;3.50;;;7.10;85.30;;;;;;5033187;28;20535;-68
2021/04/26 00:16:24;;;;;;;5.53;3.90;;;7.00;85.40;;;;;;5033248;28;20944;-68
2021/04/26 00:18:50;;;;;;;4.50;2.87;;;7.00;85.90;;;;;;5033274;28;20523;-68
2021/04/26 00:21:17;;;;;;;5.70;2.67;;;7.00;85.80;;;;;;5033147;28;20535;-68
2021/04/26 00:23:44;;;;;;;3.30;2.90;;;7.00;85.60;;;;;;5032919;28;20436;-67
2021/04/26 00:26:10;;;;;;;5.30;3.70;;;7.10;85.20;;;;;;5032803;28;21035;-67
2021/04/26 00:28:37;;;;;;;6.83;3.40;;;7.10;86.10;;;;;;5032755;28;20448;-67
2021/04/26 00:31:05;;;;;;;4.30;2.53;;;7.10;85.30;;;;;;5033214;28;20528;-68
2021/04/26 00:33:31;;;;;;;4.00;2.67;;;7.10;85.60;;;;;;5032407;28;20449;-68
2021/04/26 00:35:58;;;;;;;6.63;3.47;;;7.00;86.00;;;;;;5032846;28;20445;-68
2021/04/26 00:38:24;;;;;;;7.83;2.53;;;6.90;86.40;;;;;;5032401;28;20476;-68
2021/04/26 00:40:51;;;;;;;4.53;2.60;;;6.80;86.70;;;;;;5032363;28;20449;-67
2021/04/26 00:43:17;;;;;;;6.30;3.23;;;6.80;87.00;;;;;;5032447;28;20498;-67
2021/04/26 00:45:43;;;;;;;5.73;2.93;;;6.80;87.40;;;;;;5032515;28;20548;-67
2021/04/26 00:48:11;;;;;;;13.10;5.07;;;6.70;88.30;;;;;;5032381;28;21162;-67
2021/04/26 00:50:38;;;;;;;5.03;2.80;;;6.70;88.80;;;;;;5032571;28;20473;-67
2021/04/26 00:53:05;;;;;;;3.73;2.93;;;6.60;89.10;;;;;;5032208;28;20525;-67
2021/04/26 00:55:33;;;;;;;6.10;3.37;;;6.60;89.90;;;;;;5032469;28;20826;-68
2021/04/26 00:58:00;;;;;;;5.30;3.70;;;6.50;90.20;;;;;;5032860;28;20485;-68
2021/04/26 01:00:28;;;;;;;4.40;3.20;;;6.50;90.90;;;;;;5032123;28;20464;-67
2021/04/26 01:02:54;;;;;;;4.57;3.00;;;6.40;91.00;;;;;;5031694;28;21166;-67
2021/04/26 01:05:24;;;;;;;8.27;3.53;;;6.40;91.40;;;;;;5032192;28;20889;-67
2021/04/26 01:07:51;;;;;;;5.63;3.50;;;6.30;91.60;;;;;;5032107;28;20441;-68
2021/04/26 01:10:20;;;;;;;5.40;2.83;;;6.30;91.80;;;;;;5032208;28;20464;-68
2021/04/26 01:13:18;;;;;;;4.53;2.83;;;6.30;92.10;;;;;;5031933;28;20453;-68
2021/04/26 01:15:55;;;;;;;4.77;3.50;;;6.40;92.20;;;;;;5021347;28;20460;-67
2021/04/26 01:18:26;;;;;;;6.20;4.17;;;6.30;92.20;;;;;;5031389;28;20949;-67
2021/04/26 01:21:27;;;;;;;5.40;3.47;;;6.30;92.50;;;;;;5031144;28;21002;-68
2021/04/26 01:24:49;;;;;;;5.60;4.40;;;6.40;92.60;;;;;;5031477;28;21061;-68
2021/04/26 01:27:27;;;;;;;6.97;4.00;;;6.30;92.90;;;;;;5032198;28;20445;-68
2021/04/26 01:30:16;;;;;;;5.93;3.90;;;6.30;93.20;;;;;;5031628;28;20897;-68
2021/04/26 01:32:47;;;;;;;7.73;3.50;;;6.20;93.50;;;;;;5031715;28;20852;-68
2021/04/26 01:35:17;;;;;;;5.17;3.40;;;6.10;93.90;;;;;;5031658;28;20959;-69
2021/04/26 01:37:48;;;;;;;7.53;5.07;;;6.10;94.30;;;;;;5031433;28;20571;-67
2021/04/26 01:40:16;;;;;;;7.40;5.33;;;6.00;94.90;;;;;;5031501;28;20469;-68
2021/04/26 01:42:46;;;;;;;7.83;4.90;;;6.00;95.00;;;;;;5031486;28;20508;-68
2021/04/26 01:45:16;;;;;;;6.43;4.60;;;6.00;95.20;;;;;;5031521;28;20444;-68
2021/04/26 01:47:45;;;;;;;7.53;4.87;;;6.10;95.40;;;;;;5031225;28;20441;-68
2021/04/26 01:50:13;;;;;;;6.80;4.10;;;6.00;95.40;;;;;;5031481;28;20858;-68
2021/04/26 01:52:40;;;;;;;7.90;5.07;;;6.00;95.60;;;;;;5031149;28;21137;-68
2021/04/26 01:55:09;;;;;;;5.60;4.20;;;6.10;95.80;;;;;;5031374;28;20481;-67
2021/04/26 01:57:36;;;;;;;5.70;4.70;;;6.00;95.80;;;;;;5031235;28;21244;-68
2021/04/26 02:00:12;;;;;;;7.30;4.60;;;6.00;95.90;;;;;;5031232;28;20552;-67
2021/04/26 02:02:39;;;;;;;4.90;3.97;;;6.00;96.20;;;;;;5031072;28;20552;-67
2021/04/26 02:05:08;;;;;;;7.10;5.30;;;6.00;96.50;;;;;;5030982;28;21083;-67
2021/04/26 02:07:36;;;;;;;7.13;4.30;;;5.90;96.90;;;;;;5031434;28;20529;-67
2021/04/26 02:10:04;;;;;;;7.37;4.60;;;5.80;97.20;;;;;;5031154;28;20595;-68
2021/04/26 02:12:30;;;;;;;6.97;4.60;;;5.70;97.70;;;;;;5031044;28;20441;-69
2021/04/26 02:14:57;;;;;;;6.13;4.60;;;5.50;98.40;;;;;;5031200;28;20587;-69
2021/04/26 02:17:24;;;;;;;7.83;5.27;;;5.20;99.40;;;;;;5031054;28;20481;-68
2021/04/26 02:19:51;;;;;;;8.00;5.50;;;5.00;99.90;;;;;;5031299;28;20472;-68
2021/04/26 02:22:18;;;;;;;7.47;5.07;;;4.80;99.90;;;;;;5031618;28;20485;-69
2021/04/26 02:24:44;;;;;;;7.07;4.87;;;4.60;99.90;;;;;;5031222;28;20524;-68
2021/04/26 02:27:11;;;;;;;8.80;4.67;;;4.50;99.90;;;;;;5030733;28;20556;-68
2021/04/26 02:29:37;;;;;;;7.27;5.20;;;4.30;99.90;;;;;;5030457;28;20917;-68
2021/04/26 02:32:09;;;;;;;8.20;5.37;;;4.30;99.90;;;;;;5030766;28;20544;-68
2021/04/26 02:34:39;;;;;;;6.10;5.00;;;4.20;99.90;;;;;;5030755;28;20445;-68
2021/04/26 02:37:11;;;;;;;11.40;5.87;;;4.20;99.90;;;;;;5031100;28;20476;-68
2021/04/26 02:39:42;;;;;;;8.30;4.80;;;4.10;99.90;;;;;;5030827;28;20469;-68
2021/04/26 02:42:09;;;;;;;6.57;5.77;;;4.20;99.90;;;;;;5030771;28;20884;-68
2021/04/26 02:44:38;;;;;;;6.43;4.97;;;4.10;99.90;;;;;;5030052;28;20457;-68
2021/04/26 02:47:08;;;;;;;8.37;5.80;;;4.10;99.90;;;;;;5030245;28;20967;-68
2021/04/26 02:49:35;;;;;;;7.20;5.40;;;3.90;99.90;;;;;;5030467;28;20465;-68
2021/04/26 02:52:05;;;;;;;7.17;6.40;;;3.80;99.90;;;;;;5030582;28;20459;-68
2021/04/26 02:54:32;;;;;;;10.23;6.13;;;3.70;99.90;;;;;;5030489;28;20454;-68
2021/04/26 02:57:00;;;;;;;12.43;6.40;;;3.70;99.90;;;;;;5030756;28;20567;-68
2021/04/26 02:59:27;;;;;;;7.27;5.27;;;3.70;99.90;;;;;;5030281;28;20508;-68
2021/04/26 03:01:55;;;;;;;7.90;6.27;;;3.80;99.90;;;;;;5030530;28;20824;-68
2021/04/26 03:04:23;;;;;;;9.83;6.60;;;4.00;99.90;;;;;;5030041;28;20535;-68
2021/04/26 03:06:51;;;;;;;8.50;5.93;;;4.10;99.90;;;;;;5030030;28;20528;-68
2021/04/26 03:09:19;;;;;;;10.97;5.40;;;3.90;99.90;;;;;;5029943;28;20483;-68
2021/04/26 03:11:46;;;;;;;7.03;6.17;;;3.90;99.90;;;;;;5029822;28;20452;-68
2021/04/26 03:14:15;;;;;;;7.70;6.07;;;3.90;99.90;;;;;;5029537;28;20586;-68
2021/04/26 03:16:42;;;;;;;7.10;5.27;;;3.90;99.90;;;;;;5029909;28;20576;-68
2021/04/26 03:19:09;;;;;;;10.30;5.60;;;3.90;99.90;;;;;;5029592;28;20479;-68
2021/04/26 03:21:37;;;;;;;7.17;5.83;;;3.80;99.90;;;;;;5029935;28;20540;-68
2021/04/26 03:24:04;;;;;;;6.47;5.70;;;3.70;99.90;;;;;;5029762;28;20498;-68
2021/04/26 03:26:31;;;;;;;7.97;5.30;;;3.50;99.90;;;;;;5029779;28;20448;-68
2021/04/26 03:29:00;;;;;;;8.13;6.10;;;3.40;99.90;;;;;;5030004;28;20467;-68
2021/04/26 03:31:27;;;;;;;14.23;6.47;;;3.30;99.90;;;;;;5030138;28;21088;-68
2021/04/26 03:33:54;;;;;;;9.33;6.50;;;3.20;99.90;;;;;;5029704;28;20562;-68
2021/04/26 03:36:22;;;;;;;14.10;6.90;;;3.10;99.90;;;;;;5029792;28;20527;-68
2021/04/26 03:38:50;;;;;;;9.73;5.97;;;3.00;99.90;;;;;;5029591;28;20511;-68
2021/04/26 03:41:16;;;;;;;9.83;6.77;;;3.00;99.90;;;;;;5029804;28;20578;-68
2021/04/26 03:43:43;;;;;;;13.77;6.60;;;3.00;99.90;;;;;;5032745;28;21034;-69
2021/04/26 03:46:10;;;;;;;11.83;7.10;;;2.90;99.90;;;;;;5033590;28;20449;-69
2021/04/26 03:48:37;;;;;;;11.53;6.23;;;2.90;99.90;;;;;;5033455;28;20921;-69
2021/04/26 03:51:04;;;;;;;9.77;6.53;;;2.90;99.90;;;;;;5033400;28;20479;-68
2021/04/26 03:53:30;;;;;;;7.07;6.03;;;3.00;99.90;;;;;;5032935;28;20445;-68
2021/04/26 03:55:57;;;;;;;13.43;8.13;;;3.00;99.90;;;;;;5033818;28;20532;-67
2021/04/26 03:58:24;;;;;;;9.80;6.50;;;3.00;99.90;;;;;;5033666;28;20480;-67
2021/04/26 04:00:50;;;;;;;8.20;6.23;;;2.90;99.90;;;;;;5033344;28;21030;-67
2021/04/26 04:03:16;;;;;;;10.60;6.83;;;2.80;99.90;;;;;;5033449;28;20448;-68
2021/04/26 04:05:45;;;;;;;7.40;6.20;;;2.90;99.90;;;;;;5033688;28;20539;-68
2021/04/26 04:08:11;;;;;;;7.43;6.30;;;3.10;99.90;;;;;;5033183;28;20449;-68
2021/04/26 04:10:37;;;;;;;9.90;6.27;;;3.30;99.90;;;;;;5033601;28;20496;-69
2021/04/26 04:13:04;;;;;;;10.17;6.90;;;3.30;99.90;;;;;;5033074;28;20986;-69
2021/04/26 04:15:31;;;;;;;9.57;6.30;;;3.10;99.90;;;;;;5032970;28;20967;-67
2021/04/26 04:17:58;;;;;;;7.07;5.93;;;2.90;99.90;;;;;;5032922;28;20483;-67
2021/04/26 04:20:24;;;;;;;7.40;6.13;;;2.90;99.90;;;;;;5032929;28;20473;-67
2021/04/26 04:22:51;;;;;;;10.70;6.90;;;3.00;99.90;;;;;;5032641;28;20528;-67
2021/04/26 04:25:18;;;;;;;8.20;6.17;;;3.00;99.90;;;;;;5033191;28;20539;-67
2021/04/26 04:27:45;;;;;;;10.60;6.17;;;3.20;99.90;;;;;;5032812;28;20481;-67
2021/04/26 04:30:14;;;;;;;11.13;5.57;;;3.30;99.90;;;;;;5032924;28;20631;-67
2021/04/26 04:32:41;;;;;;;7.50;5.93;;;3.40;99.90;;;;;;5032380;28;20456;-67
2021/04/26 04:35:08;;;;;;;12.17;6.37;;;3.30;99.90;;;;;;5032755;28;20445;-66
2021/04/26 04:37:35;;;;;;;9.67;5.70;;;3.30;99.90;;;;;;5032499;28;21199;-67
2021/04/26 04:40:03;;;;;;;9.47;6.73;;;3.20;99.90;;;;;;5032839;28;20917;-67
2021/04/26 04:42:30;;;;;;;9.10;7.10;;;3.20;99.90;;;;;;5032675;28;20467;-68
2021/04/26 04:44:56;;;;;;;6.70;6.07;;;3.20;99.90;;;;;;5032599;28;20572;-67
2021/04/26 04:47:22;;;;;;;7.17;5.60;;;3.20;99.90;;;;;;5032634;28;20446;-68
2021/04/26 04:49:49;;;;;;;12.60;6.33;;;3.20;99.90;;;;;;5031998;28;20465;-68
2021/04/26 04:52:15;;;;;;;11.13;6.07;;;3.30;99.90;;;;;;5032290;28;20539;-68
2021/04/26 04:54:41;;;;;;;16.43;6.10;;;3.30;99.90;;;;;;5031839;28;20507;-68
2021/04/26 04:57:09;;;;;;;9.53;6.40;;;3.50;99.90;;;;;;5031999;28;21033;-68
2021/04/26 04:59:35;;;;;;;7.80;6.43;;;3.50;99.90;;;;;;5032127;28;20560;-68
2021/04/26 05:02:01;;;;;;;10.67;6.43;;;3.50;99.90;;;;;;5032247;28;20455;-68
2021/04/26 05:04:28;;;;;;;8.07;5.80;;;3.50;99.90;;;;;;5031637;28;20543;-68
2021/04/26 05:06:55;;;;;;;7.50;5.33;;;3.60;99.90;;;;;;5032330;28;20528;-68
2021/04/26 05:09:21;;;;;;;8.70;6.80;;;3.60;99.90;;;;;;5032082;28;20473;-68
2021/04/26 05:11:47;;;;;;;8.97;5.77;;;3.70;99.90;;;;;;5024228;28;20549;-68
2021/04/26 05:14:15;;;;;;;7.30;5.87;;;3.90;99.90;;;;;;5020888;28;20521;-77
2021/04/26 05:16:41;;;;;;;8.80;6.10;;;3.90;99.90;;;;;;5027997;28;21013;-69
2021/04/26 05:19:08;;;;;;;9.20;6.07;;;4.00;99.90;;;;;;5029140;28;20557;-67
2021/04/26 05:21:34;;;;;;;8.43;6.50;;;4.10;99.90;;;;;;5029227;28;20452;-67
2021/04/26 05:24:01;;;;;;;9.40;6.60;;;4.30;99.90;;;;;;5028931;28;20979;-68
2021/04/26 05:26:28;;;;;;;9.60;5.87;;;4.50;99.90;;;;;;5029279;28;20986;-68
2021/04/26 05:28:54;;;;;;;8.53;6.43;;;4.60;99.90;;;;;;5028242;28;21099;-70
2021/04/26 05:31:22;;;;;;;10.13;7.53;;;4.60;99.90;;;;;;5029810;28;20437;-69
2021/04/26 05:33:48;;;;;;;9.83;6.60;;;4.60;99.90;;;;;;5029693;28;20600;-69
2021/04/26 05:36:15;;;;;;;9.53;7.43;;;4.60;99.90;;;;;;5031113;28;20528;-67
2021/04/26 05:38:41;;;;;;;7.97;5.33;;;4.70;99.90;;;;;;5030657;28;20476;-66
2021/04/26 05:41:07;;;;;;;7.10;5.47;;;5.00;99.90;;;;;;5023588;28;20978;-67
2021/04/26 05:43:34;;;;;;;10.30;5.93;;;5.30;99.90;;;;;;5029744;28;20520;-68
2021/04/26 05:46:00;;;;;;;9.13;5.23;;;5.40;99.90;;;;;;5029292;28;20535;-68
2021/04/26 05:48:27;;;;;;;8.33;6.17;;;5.50;99.90;;;;;;5028625;28;20477;-68
2021/04/26 05:50:54;;;;;;;10.33;7.20;;;5.60;99.90;;;;;;5029051;28;20500;-72
2021/04/26 05:53:21;;;;;;;10.43;6.50;;;5.70;99.90;;;;;;5029000;28;20452;-68
2021/04/26 05:55:48;;;;;;;9.73;6.57;;;5.70;99.90;;;;;;5028729;28;20449;-68
2021/04/26 05:58:14;;;;;;;5.70;5.10;;;5.90;99.90;;;;;;5028155;28;20503;-68
2021/04/26 06:00:41;;;;;;;7.27;5.13;;;6.00;99.90;;;;;;5027374;28;20552;-68
2021/04/26 06:03:07;;;;;;;7.77;5.40;;;6.00;99.90;;;;;;5028439;28;20983;-68
2021/04/26 06:05:34;;;;;;;9.43;6.07;;;6.10;99.90;;;;;;5028258;28;20584;-68
2021/04/26 06:08:01;;;;;;;11.00;5.70;;;6.10;99.90;;;;;;5028803;28;20449;-67
2021/04/26 06:10:27;;;;;;;8.70;6.07;;;6.20;99.90;;;;;;5028313;28;20457;-68
2021/04/26 06:12:54;;;;;;;8.17;5.30;;;6.20;99.90;;;;;;5028166;28;20521;-68
2021/04/26 06:15:21;;;;;;;11.80;5.83;;;6.20;99.90;;;;;;5020109;28;20857;-68
2021/04/26 06:17:47;;;;;;;9.60;6.77;;;6.30;99.90;;;;;;5028114;28;20483;-68
2021/04/26 06:20:15;;;;;;;12.17;6.70;;;6.30;99.90;;;;;;5028280;28;20512;-68
2021/04/26 06:22:42;;;;;;;9.97;5.23;;;6.40;99.90;;;;;;5028639;28;20511;-67
2021/04/26 06:25:09;;;;;;;8.03;5.70;;;6.50;99.90;;;;;;5028451;28;20453;-67
2021/04/26 06:27:36;;;;;;;8.10;6.03;;;6.50;99.90;;;;;;5028294;28;20572;-67
2021/04/26 06:30:03;;;;;;;8.33;7.03;;;6.60;99.90;;;;;;5028250;28;20539;-68
2021/04/26 06:32:29;;;;;;;16.93;9.13;;;6.70;99.90;;;;;;5027568;28;20590;-67
2021/04/26 06:34:55;;;;;;;11.07;5.90;;;6.70;99.90;;;;;;5028236;28;20441;-67
2021/04/26 06:37:22;;;;;;;13.27;7.23;;;6.70;99.90;;;;;;5027315;28;20575;-67
2021/04/26 06:39:49;;;;;;;39.63;18.40;;;6.80;99.90;;;;;;5027940;28;20530;-67
2021/04/26 06:42:16;;;;;;;16.83;11.00;;;7.00;99.90;;;;;;5027997;28;20895;-68
2021/04/26 06:44:42;;;;;;;21.53;8.20;;;7.10;99.90;;;;;;5028035;28;20511;-67
2021/04/26 06:47:11;;;;;;;8.30;5.03;;;7.10;99.90;;;;;;5028266;28;20535;-68
2021/04/26 06:49:37;;;;;;;7.20;5.00;;;7.20;99.90;;;;;;5027835;28;20464;-67
2021/04/26 06:52:04;;;;;;;7.90;5.97;;;7.30;99.90;;;;;;5028390;28;20473;-71
2021/04/26 06:54:31;;;;;;;7.40;5.60;;;7.40;99.90;;;;;;5027807;28;20488;-70
2021/04/26 06:56:58;;;;;;;13.07;5.83;;;7.40;99.40;;;;;;5027760;28;20480;-71
2021/04/26 06:59:24;;;;;;;10.87;6.20;;;7.40;99.10;;;;;;5028031;28;21022;-70
2021/04/26 07:01:52;;;;;;;8.90;6.10;;;7.50;98.90;;;;;;5028092;28;20518;-71
2021/04/26 07:04:18;;;;;;;10.30;5.13;;;7.50;99.20;;;;;;5028181;28;20469;-70
2021/04/26 07:06:44;;;;;;;7.33;5.27;;;7.60;99.40;;;;;;5028579;28;21225;-70
2021/04/26 07:09:11;;;;;;;8.00;5.27;;;7.70;98.60;;;;;;5028671;28;20523;-68
2021/04/26 07:11:39;;;;;;;9.57;5.63;;;7.80;98.40;;;;;;5028285;28;20449;-67
2021/04/26 07:14:06;;;;;;;11.43;6.75;;;7.80;97.90;;;;;;5027794;28;20445;-69
2021/04/26 07:16:32;;;;;;;7.30;5.80;;;8.00;98.20;;;;;;5028366;28;20612;-68
2021/04/26 07:18:59;;;;;;;9.93;5.60;;;8.00;97.70;;;;;;5031787;28;20491;-68
2021/04/26 07:21:25;;;;;;;8.80;6.43;;;8.20;97.90;;;;;;5032041;28;20492;-69
2021/04/26 07:23:52;;;;;;;8.60;5.50;;;8.20;97.50;;;;;;5031767;28;20472;-67
2021/04/26 07:26:18;;;;;;;7.83;5.70;;;8.30;97.20;;;;;;5031711;28;20449;-67
2021/04/26 07:28:45;;;;;;;7.20;5.23;;;8.50;96.80;;;;;;5032184;28;20551;-67
2021/04/26 07:31:12;;;;;;;8.57;5.10;;;8.60;96.10;;;;;;5031972;28;20551;-67
2021/04/26 07:33:38;;;;;;;6.50;5.40;;;8.50;96.80;;;;;;5031517;28;21065;-67
2021/04/26 07:36:06;;;;;;;7.57;5.70;;;8.70;96.20;;;;;;5031708;28;20555;-66
2021/04/26 07:38:32;;;;;;;6.30;5.47;;;8.80;95.00;;;;;;5031552;28;20564;-66
2021/04/26 07:40:59;;;;;;;6.13;5.53;;;8.90;95.30;;;;;;5032409;28;20483;-66
2021/04/26 07:43:25;;;;;;;8.63;5.30;;;8.90;95.00;;;;;;5032169;28;20471;-67
2021/04/26 07:45:52;;;;;;;7.50;5.87;;;9.00;95.90;;;;;;5031740;28;20480;-67
2021/04/26 07:48:19;;;;;;;9.93;5.50;;;9.20;94.70;;;;;;5032107;28;20440;-67
2021/04/26 07:50:46;;;;;;;10.30;5.80;;;9.30;94.10;;;;;;5032158;28;21074;-67
2021/04/26 07:53:13;;;;;;;7.43;5.87;;;9.40;94.10;;;;;;5032012;28;20449;-66
2021/04/26 07:55:40;;;;;;;8.50;5.70;;;9.40;93.80;;;;;;5033173;28;20448;-67
2021/04/26 07:58:06;;;;;;;10.10;5.53;;;9.40;93.40;;;;;;5034264;28;20575;-65
2021/04/26 08:00:32;;;;;;;10.33;6.37;;;9.50;94.20;;;;;;5037020;28;20483;-66
2021/04/26 08:02:59;;;;;;;7.50;5.47;;;9.70;94.00;;;;;;5042852;28;20441;-66
2021/04/26 08:05:27;;;;;;;9.77;6.63;;;9.80;93.70;;;;;;5045699;28;20444;-68
2021/04/26 08:07:54;;;;;;;7.43;5.57;;;9.90;94.00;;;;;;5035206;28;20814;-67
2021/04/26 08:10:20;;;;;;;8.97;6.17;;;9.90;92.20;;;;;;5032654;28;20538;-66
2021/04/26 08:12:47;;;;;;;8.50;6.27;;;9.90;92.00;;;;;;5037069;28;20437;-66
2021/04/26 08:15:14;;;;;;;30.20;8.27;;;9.90;92.50;;;;;;5035543;28;20536;-67
2021/04/26 08:17:41;;;;;;;8.70;5.77;;;10.10;92.50;;;;;;5035145;28;20484;-67
2021/04/26 08:20:09;;;;;;;7.70;5.60;;;10.30;92.60;;;;;;5034581;28;20465;-66
2021/04/26 08:22:36;;;;;;;7.57;6.07;;;10.50;92.90;;;;;;5029616;28;20452;-67
2021/04/26 08:25:03;;;;;;;6.37;5.70;;;10.70;91.40;;;;;;5029781;28;20488;-66
2021/04/26 08:27:30;;;;;;;7.63;5.87;;;10.80;91.50;;;;;;5030073;28;20527;-67
2021/04/26 08:29:56;;;;;;;11.10;6.37;;;11.00;90.00;;;;;;5029258;28;21110;-65
2021/04/26 08:32:22;;;;;;;9.67;7.30;;;10.80;90.50;;;;;;5029466;28;20876;-67
2021/04/26 08:34:49;;;;;;;8.87;6.00;;;10.70;90.90;;;;;;5029272;28;20499;-67
2021/04/26 08:37:15;;;;;;;8.10;6.53;;;10.70;91.20;;;;;;5030193;28;20539;-68
2021/04/26 08:39:43;;;;;;;7.87;5.77;;;10.90;91.80;;;;;;5029038;28;20499;-68
2021/04/26 08:42:09;;;;;;;8.10;5.20;;;11.10;90.20;;;;;;5030034;28;20532;-67
2021/04/26 08:44:35;;;;;;;7.60;5.90;;;11.10;90.10;;;;;;5027331;28;20834;-68
2021/04/26 08:47:02;;;;;;;7.37;6.60;;;11.30;90.70;;;;;;5029477;28;20869;-68
2021/04/26 08:49:30;;;;;;;9.97;6.30;;;11.30;88.30;;;;;;5029234;28;20559;-67
2021/04/26 08:51:57;;;;;;;9.03;5.53;;;11.30;89.20;;;;;;5029738;28;20461;-68
2021/04/26 08:54:23;;;;;;;7.83;5.07;;;11.30;87.10;;;;;;5029282;28;20453;-68
2021/04/26 08:56:51;;;;;;;7.03;5.83;;;11.20;87.50;;;;;;5030272;28;20563;-69
2021/04/26 08:59:17;;;;;;;6.60;5.70;;;11.30;88.70;;;;;;5029844;28;20579;-70
2021/04/26 09:01:47;;;;;;;5.63;5.00;;;11.50;87.80;;;;;;5030566;28;20928;-69
2021/04/26 09:04:13;;;;;;;8.57;6.00;;;11.80;90.70;;;;;;5029349;28;21203;-70
2021/04/26 09:06:59;;;;;;;44.57;10.93;;;12.10;88.10;;;;;;5030761;28;20908;-70
2021/04/26 09:09:36;;;;;;;12.53;6.50;;;12.30;89.80;;;;;;5029640;28;20460;-71
2021/04/26 09:12:07;;;;;;;9.53;6.53;;;12.20;89.10;;;;;;5032237;28;20518;-71
2021/04/26 09:14:38;;;;;;;10.20;6.60;;;12.30;86.50;;;;;;5030558;28;21032;-71
2021/04/26 09:17:40;;;;;;;8.10;6.27;;;12.30;85.70;;;;;;5030875;28;20453;-71
2021/04/26 09:20:24;;;;;;;7.70;6.33;;;12.30;85.60;;;;;;5030027;28;20571;-71
2021/04/26 09:22:53;;;;;;;6.60;5.27;;;12.50;87.00;;;;;;5029615;28;20560;-71
2021/04/26 09:25:26;;;;;;;8.10;5.70;;;12.80;88.80;;;;;;5030226;28;20506;-72
2021/04/26 09:27:59;;;;;;;8.30;6.63;;;12.90;84.30;;;;;;5030311;28;20536;-69
2021/04/26 09:30:44;;;;;;;8.33;6.43;;;13.10;83.30;;;;;;5030206;28;20465;-70
2021/04/26 09:33:29;;;;;;;10.90;5.93;;;13.00;82.90;;;;;;5028159;28;21260;-70
2021/04/26 09:36:08;;;;;;;8.40;6.30;;;13.10;85.30;;;;;;5019614;28;20473;-70
2021/04/26 09:38:36;;;;;;;7.90;6.40;;;13.10;80.40;;;;;;5026733;28;20538;-70
2021/04/26 09:41:21;;;;;;;7.03;6.30;;;13.10;81.80;;;;;;5028072;28;20472;-70
2021/04/26 09:43:51;;;;;;;9.97;6.77;;;13.20;80.70;;;;;;5028043;28;20973;-70
2021/04/26 09:46:18;;;;;;;8.63;6.10;;;13.30;83.70;;;;;;5028687;28;20449;-70
2021/04/26 09:48:44;;;;;;;7.90;6.73;;;13.60;82.10;;;;;;5029345;28;20472;-71
2021/04/26 09:51:17;;;;;;;8.03;6.87;;;13.70;80.50;;;;;;5028615;28;21040;-69
2021/04/26 09:53:51;;;;;;;8.63;7.73;;;13.70;79.50;;;;;;5028138;28;20445;-70
2021/04/26 09:56:19;;;;;;;10.47;6.47;;;13.70;78.70;;;;;;5028809;28;20449;-70
2021/04/26 09:58:47;;;;;;;7.30;5.50;;;13.70;81.40;;;;;;5028209;28;20516;-71
2021/04/26 10:01:15;;;;;;;6.67;5.87;;;13.80;79.20;;;;;;5028237;28;20472;-71
2021/04/26 10:03:42;;;;;;;8.00;6.27;;;13.80;80.30;;;;;;5027265;28;20452;-70
2021/04/26 10:06:09;;;;;;;7.53;6.77;;;14.00;77.20;;;;;;5028941;28;20445;-70
2021/04/26 10:08:37;;;;;;;9.60;7.30;;;14.20;75.30;;;;;;5028874;28;20540;-69
2021/04/26 10:11:03;;;;;;;9.10;6.70;;;14.40;76.40;;;;;;5028796;28;20457;-72
2021/04/26 10:13:32;;;;;;;8.50;6.40;;;14.30;80.00;;;;;;5028757;28;20479;-73
2021/04/26 10:16:00;;;;;;;12.00;6.90;;;14.60;78.40;;;;;;5028768;28;20818;-72
2021/04/26 10:18:34;;;;;;;9.00;6.60;;;15.00;74.80;;;;;;5028436;28;20976;-72
2021/04/26 10:21:01;;;;;;;8.00;5.53;;;15.00;73.90;;;;;;5028879;28;20499;-72
2021/04/26 10:23:43;;;;;;;8.27;6.87;;;14.80;76.20;;;;;;5033411;28;20562;-71
2021/04/26 10:26:40;;;;;;;7.00;6.37;;;14.90;73.30;;;;;;5049013;28;20547;-73
2021/04/26 10:29:14;;;;;;;7.17;6.47;;;15.00;74.10;;;;;;5048751;28;20460;-70
2021/04/26 10:32:01;;;;;;;7.07;6.07;;;15.00;71.40;;;;;;5048341;28;20439;-72
2021/04/26 10:34:29;;;;;;;6.20;5.60;;;14.90;76.30;;;;;;5047682;28;20502;-72
2021/04/26 10:36:57;;;;;;;10.57;5.93;;;15.20;77.00;;;;;;5048501;28;20484;-71
2021/04/26 10:39:25;;;;;;;8.13;6.30;;;15.50;77.60;;;;;;5048206;28;20483;-72
2021/04/26 10:41:58;;;;;;;7.40;5.77;;;15.70;72.20;;;;;;5048355;28;20439;-72
2021/04/26 10:44:50;;;;;;;6.77;5.63;;;15.80;71.40;;;;;;5048211;28;20492;-70
2021/04/26 10:47:21;;;;;;;6.83;6.20;;;16.10;72.20;;;;;;5048181;28;20452;-71
2021/04/26 10:49:51;;;;;;;9.97;6.67;;;16.30;71.30;;;;;;5048476;28;20463;-72
2021/04/26 10:52:38;;;;;;;8.10;5.70;;;16.30;72.00;;;;;;5046373;28;20943;-71
2021/04/26 10:55:09;;;;;;;8.20;5.80;;;16.10;66.90;;;;;;5028703;28;20444;-72
2021/04/26 10:57:37;;;;;;;6.80;6.13;;;16.10;65.30;;;;;;5028139;28;20484;-71
2021/04/26 11:00:41;;;;;;;8.40;6.40;;;16.00;64.80;;;;;;5027988;28;20475;-72
2021/04/26 11:03:33;;;;;;;7.73;5.97;;;16.40;70.50;;;;;;5027973;28;20490;-70
2021/04/26 11:06:21;;;;;;;6.20;5.60;;;16.50;70.20;;;;;;5028424;28;21143;-71
2021/04/26 11:11:36;;;;;;;7.17;6.47;;;17.00;68.50;;;;;;5002996;28;20436;-73
2021/04/26 11:14:03;;;;;;;7.07;5.70;;;17.20;65.60;;;;;;5013281;28;20887;-73
2021/04/26 11:16:37;;;;;;;6.93;5.90;;;17.00;67.30;;;;;;5014348;28;20471;-70
2021/04/26 11:19:09;;;;;;;9.80;6.33;;;17.40;67.10;;;;;;5026379;28;20512;-68
2021/04/26 11:21:54;;;;;;;12.97;6.20;;;17.60;65.50;;;;;;5028853;28;20858;-71
2021/04/26 11:25:05;;;;;;;6.70;4.80;;;18.30;71.70;;;;;;5029259;28;20978;-67
2021/04/26 11:27:55;;;;;;;8.13;5.97;;;18.50;63.70;;;;;;5028479;28;20449;-70
2021/04/26 11:30:26;;;;;;;7.37;6.53;;;18.40;60.10;;;;;;5028508;28;20520;-70
2021/04/26 11:33:06;;;;;;;7.47;6.23;;;18.40;57.90;;;;;;5028330;28;20517;-70
2021/04/26 11:35:35;;;;;;;6.50;5.60;;;18.80;57.50;;;;;;5028613;28;20494;-69
2021/04/26 11:38:04;;;;;;;7.70;4.83;;;19.30;59.80;;;;;;5027861;28;20572;-67
2021/04/26 11:40:32;;;;;;;5.60;4.87;;;19.90;56.00;;;;;;5027532;28;20465;-67
2021/04/26 11:43:05;;;;;;;6.87;5.30;;;20.50;57.20;;;;;;5028274;28;20441;-67
2021/04/26 11:45:32;;;;;;;5.37;4.60;;;20.70;52.50;;;;;;5026587;28;20450;-67
2021/04/26 11:47:59;;;;;;;7.20;5.40;;;20.70;50.70;;;;;;5025619;28;20553;-70
2021/04/26 11:50:25;;;;;;;9.03;5.63;;;20.80;51.20;;;;;;5022706;28;20544;-69
2021/04/26 11:52:52;;;;;;;5.83;5.17;;;20.60;49.80;;;;;;5026896;28;20474;-69
2021/04/26 11:55:20;;;;;;;7.77;5.30;;;20.60;50.20;;;;;;5027411;28;20951;-69
2021/04/26 11:57:49;;;;;;;9.03;5.77;;;21.10;51.10;;;;;;5027099;28;20485;-69
2021/04/26 12:00:18;;;;;;;9.20;5.30;;;20.90;51.30;;;;;;5027121;28;20566;-70
2021/04/26 12:02:46;;;;;;;7.20;4.53;;;21.60;50.70;;;;;;5026935;28;20880;-68
2021/04/26 12:05:15;;;;;;;5.83;5.17;;;22.30;50.10;;;;;;5030837;28;20448;-69
2021/04/26 12:07:42;;;;;;;5.80;4.87;;;22.80;47.70;;;;;;5030472;28;20468;-69
2021/04/26 12:10:11;;;;;;;5.17;4.50;;;23.00;45.00;;;;;;5028866;28;20469;-69
2021/04/26 12:12:40;;;;;;;6.53;5.10;;;22.40;48.10;;;;;;5025303;28;20444;-71
2021/04/26 12:15:08;;;;;;;9.07;6.07;;;22.30;46.60;;;;;;5030958;28;20461;-69
2021/04/26 12:17:37;;;;;;;5.53;4.97;;;21.80;45.80;;;;;;5030717;28;20899;-69
2021/04/26 12:20:11;;;;;;;10.00;5.37;;;21.50;45.80;;;;;;5029744;28;20559;-70
2021/04/26 12:22:38;;;;;;;6.90;5.97;;;21.80;48.50;;;;;;5029674;28;20476;-70
2021/04/26 12:25:06;;;;;;;6.07;4.90;;;22.30;48.80;;;;;;5030624;28;20999;-69
2021/04/26 12:27:33;;;;;;;5.73;4.73;;;22.90;45.40;;;;;;5030765;28;20524;-69
2021/04/26 12:30:16;;;;;;;8.10;5.40;;;23.10;43.70;;;;;;5030359;28;20850;-69
2021/04/26 12:32:43;;;;;;;9.57;5.07;;;23.00;45.20;;;;;;5024317;28;20437;-69
2021/04/26 12:35:12;;;;;;;6.33;5.20;;;23.50;43.90;;;;;;5030609;28;20528;-72
2021/04/26 12:37:41;;;;;;;5.97;4.90;;;23.40;44.10;;;;;;5028448;28;20445;-73
2021/04/26 12:40:22;;;;;;;6.13;4.40;;;23.40;45.40;;;;;;5027176;28;20547;-71
2021/04/26 12:42:51;;;;;;;7.23;5.00;;;23.60;46.40;;;;;;5028177;28;20860;-73
2021/04/26 12:45:22;;;;;;;7.57;5.60;;;24.20;43.70;;;;;;5028694;28;20544;-72
2021/04/26 12:47:55;;;;;;;6.60;5.67;;;23.50;46.00;;;;;;5029148;28;20437;-72
2021/04/26 12:50:25;;;;;;;6.63;5.13;;;23.70;46.00;;;;;;5029207;28;20538;-71
2021/04/26 12:53:12;;;;;;;7.77;5.67;;;24.30;43.50;;;;;;5028893;28;20444;-72
2021/04/26 12:55:42;;;;;;;6.83;5.10;;;24.50;42.10;;;;;;5028545;28;21149;-73
2021/04/26 12:58:12;;;;;;;6.33;4.90;;;24.20;44.60;;;;;;5028733;28;20622;-73
2021/04/26 13:00:43;;;;;;;6.80;5.63;;;24.00;45.60;;;;;;5028641;28;20603;-71
2021/04/26 13:03:27;;;;;;;7.10;5.80;;;24.30;42.60;;;;;;5028373;28;20863;-73
2021/04/26 13:05:55;;;;;;;8.50;5.90;;;23.70;44.10;;;;;;5028114;28;20532;-73